createdAt,value
2018-12-15T04:05:39.849Z,63.97
2018-12-15T04:08:26.510Z,62.67
2018-12-15T04:11:14.049Z,62.47
2018-12-15T04:14:01.577Z,60.70
2018-12-15T04:16:48.335Z,60.67
2018-12-15T04:19:34.940Z,61.40
2018-12-15T04:22:22.581Z,61.57
2018-12-15T04:25:09.271Z,59.73
2018-12-15T04:27:55.639Z,58.67
2018-12-15T04:30:42.270Z,58.47
2018-12-15T04:33:33.706Z,63.07
2018-12-15T04:36:29.429Z,61.10
2018-12-15T04:48:39.968Z,57.60
2018-12-15T04:51:38.026Z,61.03
2018-12-15T04:54:28.320Z,58.87
2018-12-15T04:57:24.377Z,56.80
2018-12-15T05:00:20.703Z,57.80
2018-12-15T05:03:15.401Z,58.57
2018-12-15T05:06:11.270Z,58.73
2018-12-15T05:08:58.735Z,58.87
2018-12-15T05:11:45.726Z,58.13
2018-12-15T05:17:35.411Z,57.20
2018-12-15T05:20:24.559Z,55.73
2018-12-15T05:23:11.883Z,57.33
2018-12-15T05:25:58.399Z,56.07
2018-12-15T05:28:45.144Z,56.63
2018-12-15T05:31:32.883Z,58.27
2018-12-15T05:34:20.126Z,57.10
2018-12-15T05:37:09.874Z,57.70
2018-12-15T05:43:12.360Z,60.60
2018-12-15T06:18:58.396Z,58.00
2018-12-15T06:21:49.686Z,59.50
2018-12-15T06:24:52.854Z,59.00
2018-12-15T06:54:49.494Z,56.03
2018-12-15T07:04:06.277Z,57.20
2018-12-15T07:10:07.810Z,56.47
2018-12-15T07:13:04.850Z,55.23
2018-12-15T07:18:52.692Z,56.47
2018-12-15T07:21:42.064Z,56.60
2018-12-15T07:24:31.035Z,54.83
2018-12-15T07:27:24.359Z,55.47
2018-12-15T07:30:11.577Z,54.53
2018-12-15T07:33:07.293Z,54.00
2018-12-15T07:36:06.393Z,54.20
2018-12-15T07:42:14.666Z,55.93
2018-12-15T07:45:14.347Z,53.90
2018-12-15T07:51:21.653Z,54.20
2018-12-15T07:54:08.864Z,53.97
2018-12-15T07:56:56.775Z,53.73
2018-12-15T07:59:43.718Z,55.30
2018-12-15T08:02:35.674Z,53.77
2018-12-15T08:05:27.652Z,54.77
2018-12-15T08:08:27.075Z,53.70
2018-12-15T08:11:19.661Z,51.77
2018-12-15T08:14:11.011Z,52.23
2018-12-15T08:16:59.715Z,54.13
2018-12-15T08:19:49.990Z,52.17
2018-12-15T08:22:48.898Z,53.57
2018-12-15T08:25:44.502Z,53.13
2018-12-15T08:28:31.966Z,52.97
2018-12-15T08:31:19.505Z,51.20
2018-12-15T08:34:06.487Z,53.67
2018-12-15T08:36:53.772Z,52.50
2018-12-15T08:39:40.321Z,52.33
2018-12-15T08:42:27.051Z,50.50
2018-12-15T08:45:13.445Z,52.73
2018-12-15T08:48:00.222Z,51.50
2018-12-15T08:50:49.938Z,51.57
2018-12-15T08:53:36.715Z,52.67
2018-12-15T08:56:23.041Z,51.77
2018-12-15T08:59:19.340Z,54.53
2018-12-15T09:05:13.046Z,52.97
2018-12-15T09:11:23.827Z,52.40
2018-12-15T09:14:23.583Z,48.53
2018-12-15T09:20:30.486Z,51.03
2018-12-15T09:23:24.320Z,51.07
2018-12-15T09:26:10.977Z,51.13
2018-12-15T09:29:02.079Z,50.60
2018-12-15T09:31:54.295Z,51.40
2018-12-15T09:34:56.148Z,53.43
2018-12-15T09:37:58.404Z,61.23
2018-12-15T09:40:47.187Z,52.67
2018-12-15T09:43:36.315Z,53.57
2018-12-15T09:49:43.705Z,51.77
2018-12-15T09:52:42.259Z,52.87
2018-12-15T09:55:49.518Z,52.87
2018-12-15T10:01:50.636Z,51.80
2018-12-15T10:04:42.739Z,50.93
2018-12-15T10:07:33.211Z,48.47
2018-12-15T10:20:05.188Z,50.53
2018-12-15T10:26:12.945Z,53.17
2018-12-15T10:35:08.834Z,52.80
2018-12-15T10:37:56.839Z,53.20
2018-12-15T10:40:44.756Z,50.93
2018-12-15T10:43:32.710Z,51.37
2018-12-15T10:46:25.992Z,50.47
2018-12-15T10:49:15.896Z,49.20
2018-12-15T10:52:03.742Z,51.53
2018-12-15T10:54:50.842Z,50.40
2018-12-15T10:57:37.980Z,50.87
2018-12-15T11:00:31.693Z,50.80
2018-12-15T11:03:20.591Z,48.83
2018-12-15T11:06:08.032Z,50.77
2018-12-15T11:08:55.952Z,52.57
2018-12-15T11:11:49.039Z,47.90
2018-12-15T11:14:36.345Z,50.77
2018-12-15T11:17:25.193Z,49.00
2018-12-15T11:20:12.805Z,51.33
2018-12-15T11:22:59.731Z,51.70
2018-12-15T11:25:48.951Z,52.33
2018-12-15T11:28:36.862Z,50.73
2018-12-15T11:31:26.412Z,49.93
2018-12-15T11:34:15.260Z,50.90
2018-12-15T11:37:03.678Z,50.97
2018-12-15T11:39:50.328Z,49.00
2018-12-15T11:42:37.084Z,47.90
2018-12-15T11:45:26.677Z,50.23
2018-12-15T11:48:14.702Z,49.30
2018-12-15T11:51:03.964Z,48.83
2018-12-15T11:53:56.690Z,52.83
2018-12-15T11:56:44.905Z,50.67
2018-12-15T11:59:34.065Z,52.47
2018-12-15T12:02:22.333Z,54.57
2018-12-15T12:05:14.519Z,54.37
2018-12-15T12:08:02.986Z,53.23
2018-12-15T12:10:51.755Z,51.37
2018-12-15T12:13:39.310Z,53.07
2018-12-15T12:16:26.095Z,51.40
2018-12-15T12:19:12.976Z,55.03
2018-12-15T12:21:59.312Z,50.63
2018-12-15T12:24:46.358Z,53.60
2018-12-15T12:27:35.809Z,54.93
2018-12-15T12:30:22.411Z,54.97
2018-12-15T12:33:09.691Z,54.40
2018-12-15T12:35:58.560Z,54.17
2018-12-15T12:38:45.102Z,54.73
2018-12-15T12:41:31.945Z,53.57
2018-12-15T12:44:18.470Z,53.10
2018-12-15T12:47:05.620Z,55.03
2018-12-15T12:49:56.871Z,54.73
2018-12-15T12:52:41.939Z,57.20
2018-12-15T12:55:34.685Z,53.50
2018-12-15T12:58:22.406Z,54.97
2018-12-15T13:01:10.181Z,56.00
2018-12-15T13:03:56.546Z,53.70
2018-12-15T13:06:44.524Z,52.37
2018-12-15T13:09:32.271Z,54.23
2018-12-15T13:12:18.854Z,55.93
2018-12-15T13:15:07.264Z,55.00
2018-12-15T13:17:55.173Z,57.07
2018-12-15T13:20:44.249Z,55.43
2018-12-15T13:24:03.420Z,58.13
2018-12-15T13:26:59.216Z,56.50
2018-12-15T13:29:49.975Z,58.00
2018-12-15T13:32:50.391Z,55.80
2018-12-15T13:35:40.102Z,57.67
2018-12-15T13:38:36.492Z,56.60
2018-12-15T13:41:22.876Z,57.83
2018-12-15T13:44:09.494Z,60.07
2018-12-15T13:46:56.284Z,58.23
2018-12-15T13:49:43.259Z,59.07
2018-12-15T13:52:29.941Z,59.20
2018-12-15T13:55:16.281Z,59.30
2018-12-15T14:07:26.783Z,61.67
2018-12-15T14:10:14.114Z,60.00
2018-12-15T14:13:00.717Z,70.08
2018-12-15T14:15:47.641Z,62.30
2018-12-15T14:18:34.337Z,63.63
2018-12-15T14:21:21.035Z,60.73
2018-12-15T14:24:07.468Z,61.53
2018-12-15T14:26:55.426Z,61.67
2018-12-15T14:29:43.619Z,61.43
2018-12-15T14:32:30.037Z,60.83
2018-12-15T14:35:16.697Z,62.17
2018-12-15T14:38:03.539Z,61.30
2018-12-15T14:40:51.902Z,61.20
2018-12-15T14:43:39.218Z,60.50
2018-12-15T14:46:25.937Z,59.70
2018-12-15T14:49:12.313Z,59.10
2018-12-15T14:51:59.349Z,61.00
2018-12-15T14:54:46.153Z,59.93
2018-12-15T14:57:32.680Z,59.50
2018-12-15T15:00:19.382Z,57.73
2018-12-15T15:03:06.141Z,59.37
2018-12-15T15:05:53.375Z,59.87
2018-12-15T15:08:40.037Z,58.33
2018-12-15T15:11:27.296Z,58.23
2018-12-15T15:14:17.062Z,57.60
2018-12-15T15:17:04.307Z,59.67
2018-12-15T15:19:51.343Z,57.30
2018-12-15T15:22:38.904Z,56.50
2018-12-15T15:25:27.212Z,59.87
2018-12-15T15:28:14.803Z,58.67
2018-12-15T15:31:02.548Z,54.90
2018-12-15T15:33:49.758Z,59.10
2018-12-15T15:36:36.625Z,60.17
2018-12-15T15:39:23.549Z,59.33
2018-12-15T15:42:10.317Z,55.60
2018-12-15T15:44:58.170Z,60.40
2018-12-15T15:47:46.141Z,59.23
2018-12-15T15:50:36.520Z,62.50
2018-12-15T15:53:21.474Z,58.80
2018-12-15T15:56:07.814Z,57.03
2018-12-15T15:58:54.898Z,58.97
2018-12-15T16:01:42.642Z,58.40
2018-12-15T16:04:29.962Z,60.30
2018-12-15T16:07:16.437Z,57.37
2018-12-15T16:10:04.692Z,54.60
2018-12-15T16:12:53.680Z,55.70
2018-12-15T16:15:41.912Z,60.07
2018-12-15T16:18:29.112Z,57.87
2018-12-15T16:21:15.515Z,54.27
2018-12-15T16:24:02.075Z,54.27
2018-12-15T16:26:49.597Z,58.63
2018-12-15T16:29:36.054Z,59.43
2018-12-15T16:32:22.930Z,60.37
2018-12-15T16:35:10.118Z,55.77
2018-12-15T16:37:59.877Z,56.83
2018-12-15T16:40:47.340Z,57.37
2018-12-15T16:43:34.054Z,56.60
2018-12-15T16:46:21.313Z,52.60
2018-12-15T16:49:07.803Z,54.43
2018-12-15T16:51:54.703Z,54.73
2018-12-15T16:54:41.489Z,57.07
2018-12-15T16:57:28.219Z,54.00
2018-12-15T17:00:16.753Z,52.87
2018-12-15T17:03:03.879Z,54.70
2018-12-15T17:05:50.826Z,55.97
2018-12-15T17:08:38.671Z,54.23
2018-12-15T17:11:25.524Z,53.27
2018-12-15T17:14:13.112Z,52.77
2018-12-15T17:17:00.140Z,54.33
2018-12-15T17:19:46.509Z,52.10
2018-12-15T17:22:33.023Z,52.93
2018-12-15T17:25:19.681Z,50.10
2018-12-15T17:28:06.976Z,56.47
2018-12-15T17:30:53.469Z,52.77
2018-12-15T17:33:40.304Z,52.60
2018-12-15T17:36:28.034Z,51.70
2018-12-15T17:39:15.168Z,54.93
2018-12-15T17:42:01.940Z,55.43
2018-12-15T17:44:50.759Z,54.33
2018-12-15T17:47:37.301Z,52.77
2018-12-15T17:50:23.709Z,55.07
2018-12-15T17:53:10.675Z,55.27
2018-12-15T17:56:00.403Z,55.67
2018-12-15T17:58:47.118Z,54.43
2018-12-15T18:01:33.844Z,53.53
2018-12-15T18:04:20.206Z,52.77
2018-12-15T18:07:06.599Z,52.43
2018-12-15T18:09:53.117Z,52.30
2018-12-15T18:12:40.994Z,52.53
2018-12-15T18:15:27.835Z,52.73
2018-12-15T18:18:14.074Z,54.67
2018-12-15T18:21:00.910Z,51.90
2018-12-15T18:23:47.580Z,53.83
2018-12-15T18:26:34.911Z,50.93
2018-12-15T18:29:21.999Z,53.17
2018-12-15T18:32:09.660Z,55.60
2018-12-15T18:34:56.486Z,53.93
2018-12-15T18:37:43.116Z,52.07
2018-12-15T18:40:29.634Z,53.97
2018-12-15T18:43:16.922Z,55.23
2018-12-15T18:46:03.709Z,55.20
2018-12-15T18:48:50.515Z,49.90
2018-12-15T18:51:37.023Z,51.63
2018-12-15T18:54:24.325Z,54.80
2018-12-15T18:57:13.030Z,52.73
2018-12-15T18:59:59.295Z,51.90
2018-12-15T19:02:46.316Z,53.87
2018-12-15T19:05:33.430Z,56.43
2018-12-15T19:08:20.654Z,57.50
2018-12-15T19:11:08.180Z,57.63
2018-12-15T19:13:55.041Z,57.23
2018-12-15T19:16:42.052Z,54.13
2018-12-15T19:19:28.663Z,52.27
2018-12-15T19:22:15.130Z,55.77
2018-12-15T19:25:01.857Z,53.67
2018-12-15T19:27:48.738Z,53.03
2018-12-15T19:30:36.259Z,50.23
2018-12-15T19:33:24.073Z,50.33
2018-12-15T19:36:10.817Z,50.80
2018-12-15T19:38:58.245Z,50.23
2018-12-15T19:41:45.558Z,51.70
2018-12-15T19:44:32.348Z,51.60
2018-12-15T19:47:19.585Z,50.27
2018-12-15T19:50:06.046Z,51.63
2018-12-15T19:52:53.237Z,50.47
2018-12-15T19:55:39.842Z,49.67
2018-12-15T19:58:27.383Z,51.47
2018-12-15T20:01:13.844Z,51.87
2018-12-15T20:04:00.652Z,51.67
2018-12-15T20:06:47.462Z,51.13
2018-12-15T20:09:33.632Z,50.87
2018-12-15T20:12:20.529Z,52.73
2018-12-15T20:15:07.399Z,52.23
2018-12-15T20:17:54.397Z,54.13
2018-12-15T20:20:40.909Z,51.40
2018-12-15T20:23:29.203Z,51.80
2018-12-15T20:26:17.087Z,53.50
2018-12-15T20:29:05.124Z,51.47
2018-12-15T20:31:51.513Z,49.67
2018-12-15T20:34:37.614Z,51.90
2018-12-15T20:37:25.042Z,51.33
2018-12-15T20:40:12.185Z,51.33
2018-12-15T20:42:58.587Z,49.23
2018-12-15T20:45:45.442Z,51.63
2018-12-15T20:48:32.392Z,52.53
2018-12-15T20:51:19.209Z,51.57
2018-12-15T20:54:05.818Z,51.40
2018-12-15T20:56:52.621Z,52.03
2018-12-15T20:59:40.089Z,51.83
2018-12-15T21:02:26.439Z,53.47
2018-12-15T21:05:13.070Z,50.10
2018-12-15T21:07:59.460Z,52.20
2018-12-15T21:10:45.971Z,52.60
2018-12-15T21:13:32.254Z,53.23
2018-12-15T21:16:19.147Z,52.27
2018-12-15T21:19:06.390Z,51.53
2018-12-15T21:21:52.891Z,53.50
2018-12-15T21:24:39.635Z,51.77
2018-12-15T21:27:26.921Z,51.43
2018-12-15T21:30:14.043Z,51.30
2018-12-15T21:33:00.336Z,51.43
2018-12-15T21:35:47.266Z,50.60
2018-12-15T21:38:33.960Z,52.07
2018-12-15T21:41:21.287Z,53.57
2018-12-15T21:44:09.215Z,51.10
2018-12-15T21:46:57.636Z,52.97
2018-12-15T21:49:44.712Z,52.07
2018-12-15T21:52:31.495Z,51.60
2018-12-15T21:55:18.463Z,52.97
2018-12-15T21:58:05.442Z,50.87
2018-12-15T22:00:52.056Z,52.17
2018-12-15T22:03:40.876Z,54.03
2018-12-15T22:06:27.700Z,52.93
2018-12-15T22:09:14.633Z,52.07
2018-12-15T22:12:01.221Z,55.07
2018-12-15T22:14:47.865Z,51.20
2018-12-15T22:17:35.050Z,50.07
2018-12-15T22:20:21.659Z,52.53
2018-12-15T22:23:07.876Z,52.33
2018-12-15T22:25:54.257Z,53.93
2018-12-15T22:28:40.970Z,53.30
2018-12-15T22:31:27.322Z,52.47
2018-12-15T22:34:15.186Z,52.90
2018-12-15T22:37:01.501Z,49.63
2018-12-15T22:39:47.989Z,51.97
2018-12-15T22:42:34.799Z,50.53
2018-12-15T22:45:21.704Z,50.40
2018-12-15T22:48:08.699Z,50.97
2018-12-15T22:50:56.260Z,52.33
2018-12-15T22:53:43.017Z,51.13
2018-12-15T22:56:30.190Z,52.50
2018-12-15T22:59:16.615Z,49.93
2018-12-15T23:02:03.404Z,50.50
2018-12-15T23:04:49.375Z,52.27
2018-12-15T23:07:36.303Z,52.90
2018-12-15T23:10:22.932Z,48.80
2018-12-15T23:13:09.534Z,50.27
2018-12-15T23:15:57.869Z,49.53
2018-12-15T23:18:44.714Z,55.03
2018-12-15T23:21:34.007Z,54.27
2018-12-15T23:24:22.505Z,50.53
2018-12-15T23:27:08.901Z,50.90
2018-12-15T23:29:56.440Z,48.83
2018-12-15T23:32:43.614Z,52.17
2018-12-15T23:35:30.237Z,52.60
2018-12-15T23:38:17.584Z,51.83
2018-12-15T23:41:04.078Z,50.63
2018-12-15T23:43:51.308Z,53.57
2018-12-15T23:46:37.474Z,52.63
2018-12-15T23:49:23.720Z,53.13
2018-12-15T23:52:11.631Z,53.03
2018-12-15T23:54:58.744Z,52.13
2018-12-15T23:57:44.715Z,50.60
